Time;durP1;ratioP1;P1;durP2;ratioP2;P2;SDS_P1;SDS_P2;PMS_P1;PMS_P2;Temp;Humidity;BMP_temperature;BMP_pressure;BME280_temperature;BME280_humidity;BME280_pressure;Samples;Min_cycle;Max_cycle;Signal;HPM_P1;HPM_P2
2021/12/11 00:00:14;;;;;;;76.55;30.95;;;1.90;99.90;;;;;;5090912;28;20509;-43
2021/12/11 00:02:40;;;;;;;73.45;30.75;;;1.90;99.90;;;;;;5090477;28;20053;-44
2021/12/11 00:05:09;;;;;;;75.82;31.13;;;1.90;99.90;;;;;;5090589;28;20381;-42
2021/12/11 00:07:36;;;;;;;69.47;28.25;;;1.90;99.90;;;;;;5090139;28;20013;-43
2021/12/11 00:10:18;;;;;;;73.82;28.50;;;2.00;99.90;;;;;;5090811;28;20031;-43
2021/12/11 00:12:49;;;;;;;80.05;31.10;;;1.90;99.90;;;;;;5090492;28;20024;-44
2021/12/11 00:15:22;;;;;;;79.80;31.10;;;1.90;99.90;;;;;;5090033;28;20032;-43
2021/12/11 00:17:47;;;;;;;81.90;31.80;;;1.90;99.90;;;;;;5088311;28;20090;-44
2021/12/11 00:20:21;;;;;;;74.90;29.33;;;1.90;99.90;;;;;;5090403;28;20036;-43
2021/12/11 00:22:47;;;;;;;68.80;30.27;;;1.90;99.90;;;;;;5090341;28;20035;-42
2021/12/11 00:25:15;;;;;;;73.95;28.15;;;1.90;99.90;;;;;;5089813;28;20024;-43
2021/12/11 00:27:47;;;;;;;69.15;28.35;;;1.80;99.90;;;;;;5089931;28;20394;-42
2021/12/11 00:30:35;;;;;;;59.58;27.30;;;1.80;99.90;;;;;;5090032;28;20051;-43
2021/12/11 00:33:21;;;;;;;70.32;30.02;;;1.80;99.90;;;;;;5083870;28;20513;-43
2021/12/11 00:35:48;;;;;;;62.75;25.65;;;1.80;99.90;;;;;;5069950;28;20050;-43
2021/12/11 00:38:32;;;;;;;60.15;25.15;;;1.80;99.90;;;;;;5068882;28;20028;-43
2021/12/11 00:40:57;;;;;;;70.07;28.85;;;1.80;99.90;;;;;;5069768;28;20414;-44
2021/12/11 00:43:29;;;;;;;69.55;30.50;;;1.70;99.90;;;;;;5069376;28;20247;-42
2021/12/11 00:45:57;;;;;;;61.08;24.60;;;1.70;99.90;;;;;;5069238;28;20035;-43
2021/12/11 00:48:25;;;;;;;61.88;26.60;;;1.70;99.90;;;;;;5068916;28;20031;-43
2021/12/11 00:51:06;;;;;;;68.00;28.85;;;1.70;99.90;;;;;;5068289;28;20017;-43
2021/12/11 00:53:37;;;;;;;61.55;25.40;;;1.70;99.90;;;;;;5069568;28;20047;-43
2021/12/11 00:56:13;;;;;;;66.57;27.48;;;1.70;99.90;;;;;;5069467;28;20024;-43
2021/12/11 00:58:41;;;;;;;61.75;27.08;;;1.70;99.90;;;;;;5067557;28;20024;-43
2021/12/11 01:01:07;;;;;;;70.05;28.17;;;1.70;99.90;;;;;;5069242;28;20029;-44
2021/12/11 01:03:43;;;;;;;66.30;27.67;;;1.80;99.90;;;;;;5068841;28;20035;-43
2021/12/11 01:06:14;;;;;;;67.57;27.90;;;1.80;99.90;;;;;;5068611;28;20050;-43
2021/12/11 01:08:42;;;;;;;;;;;1.80;99.90;;;;;;5069089;28;20113;-45
2021/12/11 01:11:13;;;;;;;61.22;27.27;;;1.80;99.90;;;;;;5069067;28;20007;-45
2021/12/11 01:13:46;;;;;;;70.90;28.60;;;1.90;99.90;;;;;;5069268;28;20090;-43
2021/12/11 01:16:15;;;;;;;77.20;29.88;;;1.80;99.90;;;;;;5068932;28;20052;-44
2021/12/11 01:18:45;;;;;;;81.45;31.92;;;1.90;99.90;;;;;;5066710;28;20039;-44
2021/12/11 01:21:29;;;;;;;89.00;31.63;;;1.80;99.90;;;;;;5068641;28;20029;-44
2021/12/11 01:26:32;;;;;;;80.57;31.15;;;1.80;99.90;;;;;;5067921;28;20426;-44
2021/12/11 01:28:58;;;;;;;92.05;33.10;;;1.90;99.90;;;;;;5068561;28;20034;-43
2021/12/11 01:31:24;;;;;;;66.80;28.10;;;1.90;99.90;;;;;;5068484;28;20024;-44
2021/12/11 01:33:52;;;;;;;76.75;30.35;;;1.90;99.90;;;;;;5082338;28;20035;-42
2021/12/11 01:36:18;;;;;;;79.65;31.92;;;1.90;99.90;;;;;;5068491;28;20040;-42
2021/12/11 01:38:44;;;;;;;79.35;31.65;;;1.90;99.90;;;;;;5067575;28;20038;-43
2021/12/11 01:41:20;;;;;;;78.47;32.78;;;1.90;99.90;;;;;;5068210;28;20051;-43
2021/12/11 01:43:51;;;;;;;80.20;31.80;;;1.90;99.90;;;;;;5068338;28;20299;-43
2021/12/11 01:46:20;;;;;;;80.50;31.70;;;1.90;99.90;;;;;;5067481;28;20113;-42
2021/12/11 01:48:49;;;;;;;87.53;32.30;;;1.90;99.90;;;;;;5067859;28;20025;-43
2021/12/11 01:51:22;;;;;;;86.20;32.58;;;1.90;99.90;;;;;;5068102;28;20108;-42
2021/12/11 01:53:55;;;;;;;79.43;30.98;;;2.00;99.90;;;;;;5068433;28;20063;-42
2021/12/11 01:56:24;;;;;;;85.38;32.17;;;2.00;99.90;;;;;;5068294;28;20063;-43
2021/12/11 01:59:02;;;;;;;90.72;33.35;;;1.90;99.90;;;;;;5067230;28;20271;-43
2021/12/11 02:01:33;;;;;;;81.75;31.88;;;1.90;99.90;;;;;;5067885;28;20043;-43
2021/12/11 02:04:00;;;;;;;82.22;29.75;;;1.90;99.90;;;;;;5067940;28;20032;-43
2021/12/11 02:06:31;;;;;;;78.68;30.55;;;2.00;99.90;;;;;;5067337;28;20032;-44
2021/12/11 02:08:58;;;;;;;69.55;28.90;;;1.90;99.90;;;;;;5067290;28;20086;-43
2021/12/11 02:11:27;;;;;;;74.25;30.83;;;1.90;99.90;;;;;;5067340;28;20028;-44
2021/12/11 02:14:02;;;;;;;74.15;30.30;;;2.00;99.90;;;;;;5068191;28;20020;-44
2021/12/11 02:16:31;;;;;;;76.53;29.65;;;2.00;99.90;;;;;;5067777;28;20441;-43
2021/12/11 02:19:03;;;;;;;75.25;29.55;;;2.00;99.90;;;;;;5067829;28;20028;-43
2021/12/11 02:21:30;;;;;;;72.22;29.58;;;1.90;99.90;;;;;;5067917;28;20039;-43
2021/12/11 02:24:09;;;;;;;84.35;30.85;;;1.90;99.90;;;;;;5068218;28;20064;-43
2021/12/11 02:26:39;;;;;;;81.78;30.35;;;1.90;99.90;;;;;;5066312;28;20085;-42
2021/12/11 02:29:12;;;;;;;89.55;31.27;;;1.90;99.90;;;;;;5067631;28;20671;-42
2021/12/11 02:31:50;;;;;;;85.75;32.15;;;1.90;99.90;;;;;;5066684;28;20063;-44
2021/12/11 02:34:22;;;;;;;82.00;31.55;;;1.90;99.90;;;;;;5071984;28;20106;-43
2021/12/11 02:36:58;;;;;;;83.15;32.03;;;1.90;99.90;;;;;;5085171;28;20035;-42
2021/12/11 02:39:36;;;;;;;85.63;31.48;;;1.90;99.90;;;;;;5087165;28;20536;-43
2021/12/11 02:42:16;;;;;;;100.28;34.90;;;1.90;99.90;;;;;;5087832;28;20032;-43
2021/12/11 02:44:44;;;;;;;90.22;32.65;;;1.80;99.90;;;;;;5087746;28;20115;-43
2021/12/11 02:47:27;;;;;;;83.82;31.83;;;1.80;99.90;;;;;;5085537;28;20053;-42
2021/12/11 02:49:53;;;;;;;96.80;32.97;;;1.80;99.90;;;;;;5086419;28;20089;-43
2021/12/11 02:52:18;;;;;;;99.20;35.00;;;1.70;99.90;;;;;;5087459;28;20020;-42
2021/12/11 02:54:58;;;;;;;99.15;33.40;;;1.70;99.90;;;;;;5088051;28;20103;-42
2021/12/11 02:57:36;;;;;;;106.95;35.42;;;1.70;99.90;;;;;;5086982;28;20126;-43
2021/12/11 03:00:15;;;;;;;96.50;34.90;;;1.70;99.90;;;;;;5087603;28;20516;-42
2021/12/11 03:02:47;;;;;;;95.13;34.10;;;1.70;99.90;;;;;;5087002;28;20048;-44
2021/12/11 03:05:16;;;;;;;101.88;36.10;;;1.70;99.90;;;;;;5087317;28;20024;-46
2021/12/11 03:07:49;;;;;;;89.38;33.85;;;1.70;99.90;;;;;;5086979;28;20024;-43
2021/12/11 03:10:17;;;;;;;85.68;31.15;;;1.70;99.90;;;;;;5087722;28;20109;-44
2021/12/11 03:12:44;;;;;;;91.72;35.60;;;1.70;99.90;;;;;;5087386;28;20485;-42
2021/12/11 03:15:12;;;;;;;96.10;33.80;;;1.70;99.90;;;;;;5087845;28;20028;-46
2021/12/11 03:17:38;;;;;;;92.90;32.28;;;1.70;99.90;;;;;;5086996;28;20031;-43
2021/12/11 03:20:10;;;;;;;99.07;37.10;;;1.60;99.90;;;;;;5087837;28;20039;-42
2021/12/11 03:22:36;;;;;;;109.03;35.60;;;1.60;99.90;;;;;;5088768;28;20024;-43
2021/12/11 03:25:08;;;;;;;91.97;32.85;;;1.70;99.90;;;;;;5089890;28;20111;-42
2021/12/11 03:27:33;;;;;;;85.57;31.73;;;1.70;99.90;;;;;;5090282;28;20363;-42
2021/12/11 03:30:00;;;;;;;104.35;34.45;;;1.70;99.90;;;;;;5091037;28;20118;-43
2021/12/11 03:32:26;;;;;;;93.53;30.50;;;1.70;99.90;;;;;;5090665;28;20062;-43
2021/12/11 03:34:52;;;;;;;90.75;31.35;;;1.70;99.90;;;;;;5087693;28;20072;-43
2021/12/11 03:37:19;;;;;;;94.97;31.63;;;1.70;99.90;;;;;;5077127;28;20048;-43
2021/12/11 03:39:48;;;;;;;93.18;32.42;;;1.70;99.90;;;;;;5070747;28;20464;-43
2021/12/11 03:42:24;;;;;;;84.10;31.77;;;1.60;99.90;;;;;;5070309;28;20067;-44
2021/12/11 03:44:50;;;;;;;83.75;30.73;;;1.60;99.90;;;;;;5070511;28;20051;-43
2021/12/11 03:47:21;;;;;;;85.28;29.63;;;1.60;99.90;;;;;;5069389;28;20032;-43
2021/12/11 03:49:46;;;;;;;89.40;32.30;;;1.60;99.90;;;;;;5071041;28;20389;-43
2021/12/11 03:52:15;;;;;;;87.30;33.08;;;1.60;99.90;;;;;;5070390;28;20025;-43
2021/12/11 03:54:43;;;;;;;93.65;34.00;;;1.60;99.90;;;;;;5070638;28;20035;-43
2021/12/11 03:57:15;;;;;;;94.30;32.25;;;1.70;99.90;;;;;;5070507;28;20398;-43
2021/12/11 03:59:41;;;;;;;91.38;32.70;;;1.60;99.90;;;;;;5070458;28;20610;-43
2021/12/11 04:02:11;;;;;;;79.75;29.75;;;1.60;99.90;;;;;;5070193;28;20020;-42
2021/12/11 04:04:44;;;;;;;80.75;28.98;;;1.60;99.90;;;;;;5069960;28;20033;-42
2021/12/11 04:07:13;;;;;;;77.28;28.70;;;1.60;99.90;;;;;;5069699;28;20482;-43
2021/12/11 04:09:39;;;;;;;86.20;30.23;;;1.60;99.90;;;;;;5068925;28;20504;-42
2021/12/11 04:12:08;;;;;;;83.28;29.00;;;1.50;99.90;;;;;;5069818;28;20037;-42
2021/12/11 04:14:36;;;;;;;78.80;29.48;;;1.50;99.90;;;;;;5069555;28;20031;-43
2021/12/11 04:17:04;;;;;;;81.57;31.48;;;1.50;99.90;;;;;;5070029;28;20043;-43
2021/12/11 04:19:30;;;;;;;79.75;27.73;;;1.50;99.90;;;;;;5069197;28;20039;-43
2021/12/11 04:21:55;;;;;;;78.75;29.15;;;1.40;99.90;;;;;;5069811;28;20478;-42
2021/12/11 04:24:25;;;;;;;78.00;28.25;;;1.40;99.90;;;;;;5072321;28;20027;-42
2021/12/11 04:26:54;;;;;;;68.03;25.85;;;1.30;99.90;;;;;;5089821;28;20073;-42
2021/12/11 04:29:20;;;;;;;80.45;28.92;;;1.40;99.90;;;;;;5089284;28;20028;-42
2021/12/11 04:31:47;;;;;;;74.72;26.75;;;1.30;99.90;;;;;;5088477;28;20051;-42
2021/12/11 04:34:15;;;;;;;77.70;28.65;;;1.30;99.90;;;;;;5089889;28;20036;-42
2021/12/11 04:36:47;;;;;;;87.15;29.77;;;1.30;99.90;;;;;;5084973;28;20436;-42
2021/12/11 04:39:16;;;;;;;72.60;28.00;;;1.40;99.90;;;;;;5086535;28;20030;-43
2021/12/11 04:41:55;;;;;;;70.70;25.65;;;1.40;99.90;;;;;;5088620;28;20026;-42
2021/12/11 04:44:35;;;;;;;78.53;27.38;;;1.40;99.90;;;;;;5089279;28;20258;-43
2021/12/11 04:47:04;;;;;;;77.65;26.95;;;1.30;99.90;;;;;;5089387;28;20191;-44
2021/12/11 04:49:38;;;;;;;66.63;26.40;;;1.40;99.90;;;;;;5089274;28;20028;-43
2021/12/11 04:52:18;;;;;;;87.22;29.23;;;1.30;99.90;;;;;;5089705;28;20430;-43
2021/12/11 04:55:09;;;;;;;77.60;28.63;;;1.30;99.90;;;;;;5089619;28;20032;-43
2021/12/11 04:57:55;;;;;;;86.75;28.23;;;1.30;99.90;;;;;;5088765;28;20439;-42
2021/12/11 05:11:14;;;;;;;69.43;24.50;;;1.30;99.90;;;;;;5089766;28;20106;-43
2021/12/11 05:13:41;;;;;;;67.90;23.55;;;1.30;99.90;;;;;;5089278;28;20406;-42
2021/12/11 05:16:10;;;;;;;70.40;27.33;;;1.30;99.90;;;;;;5089410;28;20173;-43
2021/12/11 05:18:38;;;;;;;71.30;26.48;;;1.30;99.90;;;;;;5090664;28;20108;-43
2021/12/11 05:21:10;;;;;;;66.22;25.70;;;1.30;99.90;;;;;;5089109;28;20051;-42
2021/12/11 05:23:36;;;;;;;60.92;24.23;;;1.20;99.90;;;;;;5088496;28;20031;-44
2021/12/11 05:26:03;;;;;;;60.33;23.80;;;1.20;99.90;;;;;;5088985;28;20390;-43
2021/12/11 05:28:28;;;;;;;64.20;23.05;;;1.20;99.90;;;;;;5087857;28;20027;-42
2021/12/11 05:30:55;;;;;;;57.22;23.42;;;1.20;99.90;;;;;;5089200;28;20020;-43
2021/12/11 05:33:23;;;;;;;56.53;21.95;;;1.20;99.90;;;;;;5088604;28;20104;-42
2021/12/11 05:35:49;;;;;;;82.28;23.52;;;1.10;99.90;;;;;;5088832;28;20028;-43
2021/12/11 05:38:17;;;;;;;45.80;18.75;;;1.20;99.90;;;;;;5081539;28;20032;-43
2021/12/11 05:40:47;;;;;;;58.72;23.15;;;1.20;99.90;;;;;;5085737;28;20046;-43
2021/12/11 05:43:13;;;;;;;65.13;22.63;;;1.20;99.90;;;;;;5087925;28;20161;-42
2021/12/11 05:45:40;;;;;;;61.42;22.25;;;1.20;99.90;;;;;;5087929;28;20118;-42
2021/12/11 05:48:06;;;;;;;55.75;22.55;;;1.20;99.90;;;;;;5087421;28;20036;-43
2021/12/11 05:50:42;;;;;;;54.90;22.88;;;1.20;99.90;;;;;;5087553;28;20478;-42
2021/12/11 05:53:07;;;;;;;52.33;21.73;;;1.20;99.90;;;;;;5088092;28;20032;-43
2021/12/11 05:55:35;;;;;;;61.53;22.10;;;1.20;99.90;;;;;;5086895;28;20030;-42
2021/12/11 05:58:09;;;;;;;64.15;23.45;;;1.20;99.90;;;;;;5087562;28;20028;-43
2021/12/11 06:00:40;;;;;;;71.55;24.08;;;1.20;99.90;;;;;;5088381;28;20020;-43
2021/12/11 06:03:06;;;;;;;52.50;22.15;;;1.20;99.90;;;;;;5087603;28;20138;-43
2021/12/11 06:05:33;;;;;;;57.60;22.60;;;1.20;99.90;;;;;;5087894;28;20038;-42
2021/12/11 06:08:00;;;;;;;50.47;19.70;;;1.20;99.90;;;;;;5087439;28;20028;-43
2021/12/11 06:10:27;;;;;;;50.40;19.85;;;1.10;99.90;;;;;;5087933;28;20057;-43
2021/12/11 06:12:56;;;;;;;47.78;19.33;;;1.10;99.90;;;;;;5087621;28;20020;-43
2021/12/11 06:15:23;;;;;;;54.20;20.85;;;1.10;99.90;;;;;;5087626;28;20039;-43
2021/12/11 06:17:49;;;;;;;42.33;18.33;;;1.10;99.90;;;;;;5087142;28;20421;-45
2021/12/11 06:20:19;;;;;;;49.53;17.60;;;1.10;99.90;;;;;;5087618;28;20031;-44
2021/12/11 06:22:45;;;;;;;40.78;16.67;;;1.10;99.90;;;;;;5087053;28;20462;-42
2021/12/11 06:25:16;;;;;;;43.50;18.70;;;1.00;99.90;;;;;;5087930;28;20439;-43
2021/12/11 06:27:43;;;;;;;40.83;18.50;;;1.00;99.90;;;;;;5086964;28;20032;-42
2021/12/11 06:30:10;;;;;;;50.00;20.00;;;1.00;99.90;;;;;;5088076;28;20024;-43
2021/12/11 06:32:36;;;;;;;47.60;20.70;;;1.00;99.90;;;;;;5087501;28;20449;-43
2021/12/11 06:35:10;;;;;;;46.92;20.73;;;1.00;99.90;;;;;;5087592;28;20056;-43
2021/12/11 06:37:36;;;;;;;61.63;21.13;;;1.00;99.90;;;;;;5087335;28;20028;-44
2021/12/11 06:40:03;;;;;;;50.85;20.88;;;1.00;99.90;;;;;;5083285;28;20111;-44
2021/12/11 06:42:29;;;;;;;56.30;23.23;;;0.90;99.90;;;;;;5067026;28;20040;-45
2021/12/11 06:44:55;;;;;;;45.15;20.70;;;0.90;99.90;;;;;;5067827;28;20025;-44
2021/12/11 06:47:20;;;;;;;44.70;21.65;;;0.90;99.90;;;;;;5066428;28;20452;-44
2021/12/11 06:49:46;;;;;;;46.58;20.52;;;0.80;99.90;;;;;;5067991;28;20470;-44
2021/12/11 06:52:17;;;;;;;43.50;19.23;;;0.90;99.90;;;;;;5066309;28;20039;-44
2021/12/11 06:54:43;;;;;;;44.63;19.27;;;0.90;99.90;;;;;;5067831;28;20497;-44
2021/12/11 06:57:09;;;;;;;50.72;21.85;;;0.90;99.90;;;;;;5070127;28;20029;-44
2021/12/11 06:59:35;;;;;;;47.67;21.65;;;0.90;99.90;;;;;;5071106;28;20538;-43
2021/12/11 07:02:00;;;;;;;48.38;20.25;;;0.90;99.90;;;;;;5071150;28;20486;-43
2021/12/11 07:04:26;;;;;;;47.53;20.05;;;1.00;99.90;;;;;;5070697;28;20023;-43
2021/12/11 07:06:53;;;;;;;46.95;20.27;;;1.00;99.90;;;;;;5071044;28;20029;-43
2021/12/11 07:09:22;;;;;;;47.83;21.88;;;1.00;99.90;;;;;;5070419;28;20470;-44
2021/12/11 07:11:50;;;;;;;48.63;22.30;;;1.00;99.90;;;;;;5070884;28;20027;-43
2021/12/11 07:14:18;;;;;;;49.13;22.77;;;1.00;99.90;;;;;;5070645;28;20027;-44
2021/12/11 07:16:45;;;;;;;51.83;23.48;;;1.00;99.90;;;;;;5070623;28;20063;-43
2021/12/11 07:19:11;;;;;;;53.83;23.20;;;1.00;99.90;;;;;;5070583;28;20024;-45
2021/12/11 07:21:38;;;;;;;48.58;22.80;;;1.00;99.90;;;;;;5070881;28;20386;-43
2021/12/11 07:24:07;;;;;;;51.28;23.30;;;1.00;99.90;;;;;;5070680;28;20025;-43
2021/12/11 07:26:34;;;;;;;49.05;21.63;;;1.00;99.90;;;;;;5070382;28;20036;-45
2021/12/11 07:29:05;;;;;;;54.70;24.02;;;0.90;99.90;;;;;;5069839;28;20016;-44
2021/12/11 07:31:31;;;;;;;55.75;23.95;;;0.90;99.90;;;;;;5070748;28;20025;-44
2021/12/11 07:33:56;;;;;;;54.22;23.15;;;0.90;99.90;;;;;;5071071;28;20375;-44
2021/12/11 07:36:24;;;;;;;51.63;24.75;;;0.90;99.90;;;;;;5070933;28;20028;-43
2021/12/11 07:38:50;;;;;;;58.17;25.58;;;0.90;99.90;;;;;;5070319;28;20032;-43
2021/12/11 07:41:17;;;;;;;65.57;26.08;;;1.00;99.90;;;;;;5081347;28;20370;-43
2021/12/11 07:43:44;;;;;;;63.28;26.13;;;1.00;99.90;;;;;;5090458;28;20027;-45
2021/12/11 07:46:13;;;;;;;58.38;24.80;;;1.00;99.90;;;;;;5090612;28;20444;-43
2021/12/11 07:48:40;;;;;;;59.47;25.38;;;1.00;99.90;;;;;;5089652;28;20492;-43
2021/12/11 07:51:07;;;;;;;61.20;25.65;;;1.00;99.90;;;;;;5090581;28;20428;-43
2021/12/11 07:53:33;;;;;;;58.25;24.42;;;1.00;99.90;;;;;;5089297;28;20024;-43
2021/12/11 07:56:00;;;;;;;66.63;27.23;;;1.00;99.90;;;;;;5090198;28;20028;-43
2021/12/11 07:58:29;;;;;;;56.33;26.10;;;1.00;99.90;;;;;;5089964;28;20020;-43
2021/12/11 08:00:55;;;;;;;55.95;25.40;;;1.00;99.90;;;;;;5090476;28;20020;-43
2021/12/11 08:03:20;;;;;;;60.38;26.08;;;1.00;99.90;;;;;;5089352;28;20405;-43
2021/12/11 08:05:49;;;;;;;54.65;25.85;;;1.00;99.90;;;;;;5090329;28;20039;-43
2021/12/11 08:08:15;;;;;;;62.72;26.33;;;1.10;99.90;;;;;;5088658;28;20017;-43
2021/12/11 08:10:45;;;;;;;55.78;24.70;;;1.10;99.90;;;;;;5090167;28;20025;-44
2021/12/11 08:13:12;;;;;;;54.58;23.67;;;1.10;99.90;;;;;;5090421;28;20497;-44
2021/12/11 08:15:39;;;;;;;59.50;25.02;;;1.10;99.90;;;;;;5090117;28;20039;-44
2021/12/11 08:18:08;;;;;;;56.20;24.77;;;1.10;99.90;;;;;;5089963;28;20030;-43
2021/12/11 08:20:35;;;;;;;51.58;24.85;;;1.10;99.90;;;;;;5090017;28;20473;-43
2021/12/11 08:23:01;;;;;;;54.70;23.98;;;1.10;99.90;;;;;;5089882;28;20588;-44
2021/12/11 08:25:29;;;;;;;58.30;25.63;;;1.10;99.90;;;;;;5089534;28;20474;-43
2021/12/11 08:27:56;;;;;;;48.92;23.15;;;1.10;99.90;;;;;;5088802;28;20028;-44
2021/12/11 08:30:24;;;;;;;58.13;27.67;;;1.20;99.90;;;;;;5089132;28;20570;-43
2021/12/11 08:32:50;;;;;;;76.32;32.95;;;1.20;99.90;;;;;;5089334;28;20374;-44
2021/12/11 08:35:16;;;;;;;60.78;24.73;;;1.20;99.90;;;;;;5089713;28;20039;-43
2021/12/11 08:37:45;;;;;;;61.13;26.35;;;1.20;99.90;;;;;;5089080;28;20213;-44
2021/12/11 08:40:17;;;;;;;53.33;24.63;;;1.20;99.90;;;;;;5090069;28;20119;-44
2021/12/11 08:42:43;;;;;;;51.78;23.20;;;1.10;99.90;;;;;;5084676;28;20055;-45
2021/12/11 08:45:11;;;;;;;53.60;24.60;;;1.20;99.90;;;;;;5089341;28;20490;-44
2021/12/11 08:47:40;;;;;;;50.60;22.77;;;1.20;99.90;;;;;;5088492;28;20029;-44
2021/12/11 08:50:10;;;;;;;45.80;21.90;;;1.20;99.90;;;;;;5089394;28;20394;-43
2021/12/11 08:52:40;;;;;;;50.73;21.73;;;1.20;99.90;;;;;;5089149;28;20039;-45
2021/12/11 08:55:13;;;;;;;53.13;22.88;;;1.30;99.90;;;;;;5090353;28;20280;-43
2021/12/11 08:57:41;;;;;;;42.72;21.15;;;1.30;99.90;;;;;;5087706;28;20558;-45
2021/12/11 09:00:30;;;;;;;46.80;22.05;;;1.40;99.90;;;;;;5099917;28;20015;-44
2021/12/11 09:03:05;;;;;;;43.40;19.38;;;1.40;99.90;;;;;;5105736;28;20039;-44
2021/12/11 09:05:36;;;;;;;40.42;20.02;;;1.50;99.90;;;;;;5107563;28;20027;-44
2021/12/11 09:08:14;;;;;;;40.63;21.55;;;1.50;99.90;;;;;;5109153;28;20506;-43
2021/12/11 09:10:48;;;;;;;40.70;20.38;;;1.50;99.90;;;;;;5088004;28;20428;-45
2021/12/11 09:13:20;;;;;;;38.35;19.45;;;1.50;99.90;;;;;;5086661;28;20024;-43
2021/12/11 09:15:52;;;;;;;45.35;21.90;;;1.50;99.90;;;;;;5088091;28;20106;-43
2021/12/11 09:18:48;;;;;;;38.75;19.48;;;1.50;99.90;;;;;;5087736;28;20032;-43
2021/12/11 09:21:19;;;;;;;43.53;19.25;;;1.50;99.90;;;;;;5086101;28;20024;-43
2021/12/11 09:24:11;;;;;;;41.17;20.65;;;1.50;99.90;;;;;;5087858;28;20127;-45
2021/12/11 09:26:59;;;;;;;37.75;18.50;;;1.70;99.90;;;;;;5076030;28;20679;-44
2021/12/11 09:30:14;;;;;;;36.70;19.60;;;1.70;99.90;;;;;;5087568;28;20020;-44
2021/12/11 09:32:51;;;;;;;38.55;20.88;;;1.80;99.90;;;;;;5086807;28;20097;-44
2021/12/11 09:35:21;;;;;;;44.60;21.42;;;1.90;99.90;;;;;;5089006;28;20027;-43
2021/12/11 09:37:48;;;;;;;42.67;21.83;;;1.80;99.90;;;;;;5088293;28;20346;-43
2021/12/11 09:40:38;;;;;;;39.40;20.15;;;1.80;99.90;;;;;;5106379;27;20380;-43
2021/12/11 09:43:04;;;;;;;45.72;21.70;;;1.60;99.90;;;;;;5106599;28;20028;-43
2021/12/11 09:45:39;;;;;;;49.58;23.95;;;1.60;99.90;;;;;;5106520;28;20101;-42
2021/12/11 09:48:09;;;;;;;51.70;25.02;;;1.60;99.90;;;;;;5105596;28;20023;-43
2021/12/11 09:50:53;;;;;;;47.10;24.20;;;1.70;99.90;;;;;;5102882;28;20023;-43
2021/12/11 09:53:22;;;;;;;50.67;24.35;;;1.60;99.90;;;;;;5099508;28;20377;-43
2021/12/11 09:55:48;;;;;;;51.78;24.05;;;1.50;99.90;;;;;;5104487;28;20997;-43
2021/12/11 09:58:19;;;;;;;53.45;25.55;;;1.50;99.90;;;;;;5099734;28;20224;-44
2021/12/11 10:00:56;;;;;;;54.78;26.38;;;1.40;99.90;;;;;;5103905;28;20065;-44
2021/12/11 10:03:25;;;;;;;54.42;26.73;;;1.30;99.90;;;;;;5103860;28;20063;-42
2021/12/11 10:05:56;;;;;;;59.40;25.45;;;1.30;99.90;;;;;;5103890;28;20038;-49
2021/12/11 10:08:37;;;;;;;47.72;23.95;;;1.20;99.90;;;;;;5102556;28;20056;-43
2021/12/11 10:11:02;;;;;;;;;;;1.10;99.90;;;;;;5104267;28;20039;-43
2021/12/11 10:13:30;;;;;;;50.20;23.85;;;1.10;99.90;;;;;;5104832;28;20289;-43
2021/12/11 10:15:55;;;;;;;48.20;23.75;;;1.00;99.90;;;;;;5104539;28;20016;-43
2021/12/11 10:18:24;;;;;;;51.05;26.10;;;1.10;99.90;;;;;;5104570;28;20027;-44
2021/12/11 10:21:05;;;;;;;56.75;26.90;;;1.10;99.90;;;;;;5105113;28;20407;-43
2021/12/11 10:23:34;;;;;;;45.63;22.42;;;1.10;99.90;;;;;;5106239;28;20023;-45
2021/12/11 10:26:02;;;;;;;44.72;22.95;;;1.10;99.90;;;;;;5106370;28;20381;-42
2021/12/11 10:28:29;;;;;;;47.63;23.20;;;1.20;99.90;;;;;;5105213;28;20028;-43
2021/12/11 10:31:01;;;;;;;54.90;24.13;;;1.20;99.90;;;;;;5106320;28;20032;-44
2021/12/11 10:33:29;;;;;;;46.05;23.42;;;1.40;99.90;;;;;;5106081;28;20023;-44
2021/12/11 10:35:57;;;;;;;46.20;23.10;;;1.40;99.90;;;;;;5105826;28;20012;-44
2021/12/11 10:38:25;;;;;;;44.45;22.88;;;1.50;99.90;;;;;;5104216;28;20023;-44
2021/12/11 10:40:55;;;;;;;44.40;23.02;;;1.50;99.90;;;;;;5105581;28;20107;-45
2021/12/11 10:43:28;;;;;;;40.30;23.60;;;1.50;99.90;;;;;;5102817;28;20016;-43
2021/12/11 10:45:56;;;;;;;51.38;25.42;;;1.60;99.90;;;;;;5104653;28;20480;-43
2021/12/11 10:48:25;;;;;;;44.08;21.90;;;1.60;99.90;;;;;;5105656;28;20060;-43
2021/12/11 10:51:09;;;;;;;49.33;25.88;;;1.70;99.90;;;;;;5096431;28;20486;-43
2021/12/11 10:53:37;;;;;;;43.65;23.35;;;1.60;99.90;;;;;;5093009;28;20044;-44
2021/12/11 10:56:07;;;;;;;47.92;24.45;;;1.60;99.90;;;;;;5092916;28;20159;-43
2021/12/11 10:58:40;;;;;;;48.45;23.15;;;1.60;99.90;;;;;;5092246;28;20351;-43
2021/12/11 11:01:12;;;;;;;45.05;22.52;;;1.70;99.90;;;;;;5092679;28;20459;-42
2021/12/11 11:03:41;;;;;;;42.78;24.13;;;1.80;99.90;;;;;;5092470;28;20081;-43
2021/12/11 11:06:07;;;;;;;45.45;23.35;;;1.90;99.90;;;;;;5090601;28;20599;-43
2021/12/11 11:08:34;;;;;;;46.83;23.65;;;1.80;99.90;;;;;;5091543;28;20043;-44
2021/12/11 11:11:05;;;;;;;40.13;23.02;;;1.80;99.90;;;;;;5091753;28;20362;-43
2021/12/11 11:13:32;;;;;;;41.67;22.70;;;1.90;99.90;;;;;;5089571;28;20024;-45
2021/12/11 11:15:58;;;;;;;41.72;21.98;;;2.00;99.90;;;;;;5082452;28;20024;-42
2021/12/11 11:18:27;;;;;;;41.38;22.70;;;2.00;99.90;;;;;;5090257;28;20024;-45
2021/12/11 11:20:58;;;;;;;43.72;22.15;;;2.00;99.90;;;;;;5090873;28;20026;-43
2021/12/11 11:23:24;;;;;;;48.13;23.77;;;1.80;99.90;;;;;;5091646;28;20028;-44
2021/12/11 11:25:53;;;;;;;46.88;24.45;;;1.90;99.90;;;;;;5091439;28;20016;-44
2021/12/11 11:28:22;;;;;;;45.15;23.33;;;1.80;99.90;;;;;;5091157;28;20028;-44
2021/12/11 11:30:55;;;;;;;46.95;24.33;;;1.70;99.90;;;;;;5091315;28;20069;-44
2021/12/11 11:33:21;;;;;;;43.20;24.38;;;1.80;99.90;;;;;;5091556;28;20081;-43
2021/12/11 11:35:48;;;;;;;47.28;24.40;;;1.80;99.90;;;;;;5090479;28;20028;-44
2021/12/11 11:38:19;;;;;;;45.97;22.45;;;1.90;99.90;;;;;;5090568;28;20063;-43
2021/12/11 11:40:49;;;;;;;47.38;23.35;;;2.00;99.90;;;;;;5091168;28;20039;-43
2021/12/11 11:43:16;;;;;;;42.22;24.02;;;2.00;99.90;;;;;;5091311;28;20431;-43
2021/12/11 11:45:42;;;;;;;47.53;24.48;;;2.00;99.90;;;;;;5091060;28;20090;-45
2021/12/11 11:48:09;;;;;;;46.47;24.23;;;2.00;99.90;;;;;;5090606;28;20024;-43
2021/12/11 11:50:38;;;;;;;44.22;23.60;;;2.10;99.90;;;;;;5090208;28;20559;-43
2021/12/11 11:53:05;;;;;;;44.40;23.48;;;2.10;99.90;;;;;;5091783;28;20603;-44
2021/12/11 11:55:39;;;;;;;48.95;25.10;;;2.10;99.90;;;;;;5091759;28;20028;-43
2021/12/11 11:58:06;;;;;;;44.03;23.83;;;2.20;99.90;;;;;;5090984;28;20024;-44
2021/12/11 12:00:41;;;;;;;41.50;22.60;;;2.20;99.90;;;;;;5088742;28;20031;-43
2021/12/11 12:03:08;;;;;;;43.15;24.13;;;2.20;99.90;;;;;;5086455;28;20103;-43
2021/12/11 12:05:36;;;;;;;38.83;21.83;;;2.30;99.90;;;;;;5089461;28;20012;-43
2021/12/11 12:08:04;;;;;;;43.03;22.20;;;2.30;99.90;;;;;;5087465;28;20016;-44
2021/12/11 12:10:30;;;;;;;39.88;22.65;;;2.40;99.90;;;;;;5088543;28;20497;-43
2021/12/11 12:12:56;;;;;;;48.33;24.20;;;2.30;99.90;;;;;;5088489;28;20034;-42
2021/12/11 12:15:32;;;;;;;42.85;22.48;;;2.20;99.90;;;;;;5087007;28;20462;-44
2021/12/11 12:17:58;;;;;;;41.60;23.33;;;2.20;99.90;;;;;;5082930;28;20028;-43
2021/12/11 12:20:25;;;;;;;42.40;23.42;;;2.30;99.90;;;;;;5088163;28;20107;-44
2021/12/11 12:22:52;;;;;;;45.53;25.02;;;2.30;99.90;;;;;;5088217;28;20466;-45
2021/12/11 12:25:18;;;;;;;45.67;24.67;;;2.30;99.90;;;;;;5085552;28;20034;-43
2021/12/11 12:27:44;;;;;;;50.70;25.42;;;2.40;99.90;;;;;;5087901;28;20020;-44
2021/12/11 12:30:34;;;;;;;49.28;24.48;;;2.40;99.90;;;;;;5088733;28;20028;-48
2021/12/11 12:33:00;;;;;;;46.78;24.85;;;2.50;99.90;;;;;;5076457;28;20390;-45
2021/12/11 12:35:27;;;;;;;45.13;24.45;;;2.50;99.90;;;;;;5087905;28;20499;-43
2021/12/11 12:37:53;;;;;;;45.47;25.20;;;2.50;99.90;;;;;;5087536;28;20444;-46
2021/12/11 12:40:27;;;;;;;49.40;25.23;;;2.50;99.90;;;;;;5086660;28;20507;-44
2021/12/11 12:43:05;;;;;;;50.60;25.35;;;2.60;99.90;;;;;;5088023;28;20513;-44
2021/12/11 12:45:38;;;;;;;47.58;26.92;;;2.70;99.90;;;;;;5085905;28;20020;-44
2021/12/11 12:48:10;;;;;;;51.30;27.20;;;2.60;99.90;;;;;;5087544;28;20262;-43
2021/12/11 12:50:42;;;;;;;49.38;26.60;;;2.60;99.90;;;;;;5087627;28;20024;-45
2021/12/11 12:53:10;;;;;;;44.58;24.25;;;2.60;99.90;;;;;;5087687;28;20034;-45
2021/12/11 12:55:50;;;;;;;51.08;25.67;;;2.70;99.90;;;;;;5087503;28;20753;-45
2021/12/11 12:58:21;;;;;;;47.53;25.33;;;2.70;99.90;;;;;;5086743;28;20021;-46
2021/12/11 13:00:54;;;;;;;46.55;25.70;;;2.60;99.90;;;;;;5088096;28;20269;-45
2021/12/11 13:03:24;;;;;;;50.13;27.25;;;2.60;99.90;;;;;;5088067;28;20016;-44
2021/12/11 13:05:58;;;;;;;53.75;26.65;;;2.60;99.90;;;;;;5088299;28;20016;-45